createdAt,value
2018-11-02T00:00:11.874Z,15.03
2018-11-02T00:02:47.210Z,13.40
2018-11-02T00:05:21.924Z,13.40
2018-11-02T00:07:56.349Z,14.10
2018-11-02T00:10:31.070Z,14.70
2018-11-02T00:13:05.605Z,14.80
2018-11-02T00:15:40.327Z,13.63
2018-11-02T00:18:15.458Z,13.70
2018-11-02T00:23:31.417Z,14.47
2018-11-02T00:26:06.740Z,13.97
2018-11-02T00:28:41.565Z,12.60
2018-11-02T00:31:16.783Z,13.37
2018-11-02T00:33:51.944Z,13.60
2018-11-02T00:36:26.322Z,12.43
2018-11-02T00:39:01.280Z,12.23
2018-11-02T00:41:35.869Z,12.63
2018-11-02T00:44:10.925Z,12.67
2018-11-02T00:46:45.600Z,12.67
2018-11-02T00:49:20.607Z,13.33
2018-11-02T00:51:55.225Z,12.17
2018-11-02T00:54:30.212Z,12.40
2018-11-02T00:57:05.229Z,12.20
2018-11-02T00:59:40.477Z,13.23
2018-11-02T01:02:15.233Z,13.30
2018-11-02T01:04:50.201Z,12.23
2018-11-02T01:07:24.917Z,13.20
2018-11-02T01:10:00.054Z,12.83
2018-11-02T01:12:35.306Z,13.10
2018-11-02T01:15:10.864Z,12.27
2018-11-02T01:17:45.692Z,13.93
2018-11-02T01:20:20.697Z,12.97
2018-11-02T01:23:05.570Z,13.13
2018-11-02T01:25:40.266Z,12.83
2018-11-02T01:28:15.403Z,13.10
2018-11-02T01:30:50.129Z,13.07
2018-11-02T01:33:30.049Z,13.30
2018-11-02T01:36:06.357Z,13.00
2018-11-02T01:38:41.012Z,12.50
2018-11-02T01:41:15.630Z,12.33
2018-11-02T01:43:50.417Z,13.03
2018-11-02T01:46:25.865Z,13.80
2018-11-02T01:49:00.632Z,13.27
2018-11-02T01:51:35.673Z,13.13
2018-11-02T01:54:10.248Z,13.90
2018-11-02T01:56:44.615Z,13.47
2018-11-02T01:59:19.537Z,13.03
2018-11-02T02:01:53.806Z,13.17
2018-11-02T02:04:28.857Z,13.90
2018-11-02T02:07:04.675Z,12.83
2018-11-02T02:09:39.274Z,13.23
2018-11-02T02:12:13.784Z,12.87
2018-11-02T02:14:48.224Z,15.00
2018-11-02T02:17:22.976Z,14.20
2018-11-02T02:19:58.217Z,13.67
2018-11-02T02:22:32.915Z,13.60
2018-11-02T02:25:07.921Z,13.53
2018-11-02T02:27:42.396Z,14.03
2018-11-02T02:30:17.665Z,14.43
2018-11-02T02:32:52.408Z,13.20
2018-11-02T02:35:27.564Z,13.00
2018-11-02T02:38:02.332Z,13.73
2018-11-02T02:40:37.124Z,13.10
2018-11-02T02:43:12.069Z,13.10
2018-11-02T02:45:47.225Z,12.43
2018-11-02T02:48:37.177Z,12.57
2018-11-02T02:51:12.150Z,13.80
2018-11-02T02:53:47.140Z,14.53
2018-11-02T02:56:21.889Z,13.83
2018-11-02T02:58:57.015Z,13.30
2018-11-02T03:01:32.273Z,13.97
2018-11-02T03:04:07.262Z,13.10
2018-11-02T03:06:42.093Z,13.20
2018-11-02T03:09:16.533Z,13.20
2018-11-02T03:11:51.391Z,13.00
2018-11-02T03:14:26.596Z,13.50
2018-11-02T03:17:01.414Z,13.23
2018-11-02T03:19:35.911Z,12.67
2018-11-02T03:22:10.616Z,12.97
2018-11-02T03:24:45.069Z,13.00
2018-11-02T03:27:19.808Z,13.90
2018-11-02T03:29:54.161Z,13.07
2018-11-02T03:32:28.812Z,13.73
2018-11-02T03:35:03.428Z,14.10
2018-11-02T03:37:38.601Z,13.40
2018-11-02T03:40:13.704Z,13.00
2018-11-02T03:42:48.559Z,13.90
2018-11-02T03:45:23.475Z,13.53
2018-11-02T03:47:58.398Z,14.17
2018-11-02T03:50:33.327Z,13.43
2018-11-02T03:53:08.567Z,13.17
2018-11-02T03:55:43.878Z,13.07
2018-11-02T03:58:18.273Z,13.67
2018-11-02T04:00:53.438Z,11.80
2018-11-02T04:03:28.147Z,11.47
2018-11-02T04:06:03.249Z,11.53
2018-11-02T04:08:38.366Z,11.93
2018-11-02T04:11:13.337Z,12.47
2018-11-02T04:13:48.100Z,12.00
2018-11-02T04:16:22.615Z,14.30
2018-11-02T04:18:57.782Z,12.83
2018-11-02T04:21:36.382Z,12.03
2018-11-02T04:24:11.793Z,11.77
2018-11-02T04:26:46.909Z,11.60
2018-11-02T04:29:22.045Z,11.40
2018-11-02T04:31:56.720Z,12.10
2018-11-02T04:34:31.377Z,13.27
2018-11-02T04:37:06.232Z,11.50
2018-11-02T04:39:41.316Z,13.40
2018-11-02T04:42:16.088Z,13.10
2018-11-02T04:44:50.752Z,12.73
2018-11-02T04:47:25.529Z,12.33
2018-11-02T04:50:00.821Z,11.80
2018-11-02T04:52:35.661Z,11.90
2018-11-02T04:55:10.423Z,11.77
2018-11-02T04:57:45.244Z,12.63
2018-11-02T05:00:20.700Z,12.60
2018-11-02T05:02:55.533Z,12.13
2018-11-02T05:05:30.647Z,12.30
2018-11-02T05:08:05.456Z,11.83
2018-11-02T05:10:40.475Z,13.43
2018-11-02T05:13:15.096Z,12.77
2018-11-02T05:15:50.673Z,12.80
2018-11-02T05:18:25.312Z,12.70
2018-11-02T05:21:00.018Z,12.20
2018-11-02T05:23:34.669Z,12.83
2018-11-02T05:26:09.425Z,12.33
2018-11-02T05:28:44.608Z,12.47
2018-11-02T05:31:19.272Z,12.47
2018-11-02T05:33:53.895Z,11.93
2018-11-02T05:36:28.850Z,12.07
2018-11-02T05:39:04.441Z,11.77
2018-11-02T05:41:39.749Z,12.33
2018-11-02T05:44:14.929Z,11.87
2018-11-02T05:46:49.456Z,12.20
2018-11-02T05:49:24.127Z,12.27
2018-11-02T05:51:59.125Z,12.00
2018-11-02T05:54:33.965Z,11.57
2018-11-02T05:57:09.732Z,12.17
2018-11-02T05:59:44.612Z,11.10
2018-11-02T06:02:19.385Z,11.57
2018-11-02T06:04:54.217Z,11.57
2018-11-02T06:07:28.779Z,11.73
2018-11-02T06:10:03.735Z,11.47
2018-11-02T06:12:38.583Z,12.80
2018-11-02T06:15:13.563Z,13.27
2018-11-02T06:17:48.316Z,14.50
2018-11-02T06:20:23.252Z,12.70
2018-11-02T06:22:57.871Z,12.53
2018-11-02T06:25:32.910Z,12.03
2018-11-02T06:28:07.468Z,12.83
2018-11-02T06:30:42.356Z,13.40
2018-11-02T06:33:17.328Z,12.73
2018-11-02T06:35:51.753Z,12.50
2018-11-02T06:38:26.916Z,12.90
2018-11-02T06:41:01.682Z,12.63
2018-11-02T06:43:36.320Z,12.57
2018-11-02T06:46:11.464Z,13.53
2018-11-02T06:48:47.185Z,12.67
2018-11-02T06:51:21.976Z,12.97
2018-11-02T06:53:57.442Z,12.50
2018-11-02T06:56:32.228Z,13.83
2018-11-02T06:59:06.807Z,13.70
2018-11-02T07:01:41.660Z,12.90
2018-11-02T07:04:17.147Z,13.17
2018-11-02T07:06:51.848Z,12.97
2018-11-02T07:09:26.256Z,11.67
2018-11-02T07:12:01.592Z,12.07
2018-11-02T07:14:36.263Z,12.77
2018-11-02T07:17:11.233Z,12.50
2018-11-02T07:19:45.668Z,12.03
2018-11-02T07:22:20.736Z,11.80
2018-11-02T07:24:55.833Z,12.93
2018-11-02T07:27:31.692Z,12.17
2018-11-02T07:30:07.471Z,12.17
2018-11-02T07:32:42.345Z,12.57
2018-11-02T07:35:17.448Z,15.13
2018-11-02T07:37:51.994Z,13.17
2018-11-02T07:40:27.125Z,13.73
2018-11-02T07:43:01.830Z,13.50
2018-11-02T07:45:36.583Z,12.77
2018-11-02T07:48:11.581Z,13.70
2018-11-02T07:50:46.243Z,13.73
2018-11-02T07:53:21.806Z,13.67
2018-11-02T07:55:57.193Z,15.60
2018-11-02T07:58:31.946Z,14.43
2018-11-02T08:01:06.760Z,14.43
2018-11-02T08:03:42.301Z,14.17
2018-11-02T08:06:17.209Z,14.77
2018-11-02T08:08:52.497Z,15.07
2018-11-02T08:11:27.703Z,15.13
2018-11-02T08:14:02.256Z,14.17
2018-11-02T08:16:37.808Z,15.90
2018-11-02T08:19:12.765Z,14.23
2018-11-02T08:21:47.317Z,14.67
2018-11-02T08:24:21.690Z,14.67
2018-11-02T08:26:56.436Z,12.80
2018-11-02T08:29:30.841Z,13.07
2018-11-02T08:32:05.212Z,10.83
2018-11-02T08:34:40.023Z,13.20
2018-11-02T08:37:14.725Z,11.17
2018-11-02T08:39:49.335Z,9.27
2018-11-02T08:42:23.932Z,9.17
2018-11-02T08:44:58.432Z,7.57
2018-11-02T08:47:33.133Z,8.33
2018-11-02T08:50:08.974Z,9.70
2018-11-02T08:52:43.506Z,7.57
2018-11-02T08:55:17.999Z,7.57
2018-11-02T08:57:52.465Z,7.37
2018-11-02T09:00:27.146Z,7.63
2018-11-02T09:03:01.804Z,8.00
2018-11-02T09:05:36.748Z,8.00
2018-11-02T09:08:11.502Z,7.77
2018-11-02T09:10:46.025Z,7.77
2018-11-02T09:13:20.745Z,7.80
2018-11-02T09:15:55.848Z,7.30
2018-11-02T09:18:30.671Z,7.37
2018-11-02T09:21:05.400Z,7.10
2018-11-02T09:23:39.899Z,7.00
2018-11-02T09:26:14.455Z,7.50
2018-11-02T09:28:49.523Z,6.90
2018-11-02T09:31:24.752Z,6.90
2018-11-02T09:33:59.433Z,7.20
2018-11-02T09:36:34.013Z,7.70
2018-11-02T09:39:11.660Z,6.97
2018-11-02T09:41:46.388Z,6.87
2018-11-02T09:44:21.605Z,7.47
2018-11-02T09:46:56.323Z,7.80
2018-11-02T09:49:31.545Z,7.93
2018-11-02T09:52:06.238Z,8.30
2018-11-02T09:54:41.020Z,8.30
2018-11-02T09:57:15.632Z,8.63
2018-11-02T09:59:50.606Z,9.23
2018-11-02T10:02:25.509Z,9.93
2018-11-02T10:05:00.865Z,10.20
2018-11-02T10:07:37.008Z,11.03
2018-11-02T10:10:13.109Z,9.60
2018-11-02T10:12:47.955Z,9.90
2018-11-02T10:15:22.830Z,9.27
2018-11-02T10:17:57.793Z,9.53
2018-11-02T10:20:32.760Z,12.93
2018-11-02T10:23:07.840Z,11.50
2018-11-02T10:25:43.537Z,11.53
2018-11-02T10:28:18.257Z,11.60
2018-11-02T10:30:53.020Z,10.43
2018-11-02T10:33:27.864Z,10.87
2018-11-02T10:36:02.915Z,10.63
2018-11-02T10:38:37.947Z,11.50
2018-11-02T10:41:14.952Z,11.67
2018-11-02T10:43:50.536Z,13.83
2018-11-02T10:46:25.450Z,12.73
2018-11-02T10:49:00.768Z,12.33
2018-11-02T10:51:36.412Z,12.10
2018-11-02T10:54:11.901Z,12.83
2018-11-02T10:56:47.202Z,12.77
2018-11-02T10:59:22.385Z,12.70
2018-11-02T11:02:02.573Z,13.23
2018-11-02T11:04:38.865Z,12.70
2018-11-02T11:07:14.116Z,14.77
2018-11-02T11:09:49.988Z,13.40
2018-11-02T11:12:25.612Z,12.33
2018-11-02T11:15:00.824Z,11.97
2018-11-02T11:17:35.933Z,12.17
2018-11-02T11:20:12.081Z,12.63
2018-11-02T11:22:47.020Z,13.30
2018-11-02T11:25:21.880Z,11.70
2018-11-02T11:27:56.985Z,12.83
2018-11-02T11:30:32.555Z,12.47
2018-11-02T11:33:07.556Z,12.43
2018-11-02T11:35:42.739Z,12.50
2018-11-02T11:38:17.348Z,12.53
2018-11-02T11:40:52.188Z,13.33
2018-11-02T11:43:27.456Z,13.87
2018-11-02T11:46:02.566Z,13.60
2018-11-02T11:48:37.669Z,14.07
2018-11-02T11:51:13.249Z,13.10
2018-11-02T11:53:48.353Z,13.50
2018-11-02T11:56:23.155Z,13.50
2018-11-02T11:58:57.885Z,14.37
2018-11-02T12:01:32.979Z,12.80
2018-11-02T12:04:07.650Z,13.63
2018-11-02T12:06:42.805Z,13.57
2018-11-02T12:09:21.580Z,14.30
2018-11-02T12:11:57.000Z,14.47
2018-11-02T12:14:32.328Z,14.63
2018-11-02T12:17:07.462Z,15.23
2018-11-02T12:19:42.689Z,14.60
2018-11-02T12:22:17.779Z,13.43
2018-11-02T12:24:53.152Z,15.30
2018-11-02T12:27:28.096Z,14.50
2018-11-02T12:30:03.550Z,13.97
2018-11-02T12:32:38.648Z,14.07
2018-11-02T12:35:14.958Z,13.30
2018-11-02T12:37:49.964Z,14.13
2018-11-02T12:40:25.140Z,14.33
2018-11-02T12:42:59.876Z,14.00
2018-11-02T12:45:34.557Z,13.37
2018-11-02T12:48:12.126Z,13.60
2018-11-02T12:50:47.376Z,13.77
2018-11-02T12:53:22.256Z,13.77
2018-11-02T12:55:57.258Z,14.17
2018-11-02T12:58:31.992Z,14.20
2018-11-02T13:01:07.449Z,14.00
2018-11-02T13:03:42.205Z,13.73
2018-11-02T13:06:16.792Z,14.63
2018-11-02T13:08:51.516Z,14.03
2018-11-02T13:11:26.361Z,14.40
2018-11-02T13:14:00.971Z,14.63
2018-11-02T13:16:35.785Z,14.37
2018-11-02T13:19:10.800Z,13.73
2018-11-02T13:21:45.727Z,14.33
2018-11-02T13:24:20.493Z,14.77
2018-11-02T13:26:55.204Z,15.30
2018-11-02T13:29:32.557Z,13.40
2018-11-02T13:32:14.284Z,14.67
2018-11-02T13:34:54.581Z,14.67
2018-11-02T13:37:29.328Z,14.13
2018-11-02T13:40:04.235Z,13.90
2018-11-02T13:42:40.160Z,14.30
2018-11-02T13:45:17.078Z,14.90
2018-11-02T13:47:52.163Z,15.43
2018-11-02T13:50:27.219Z,14.43
2018-11-02T13:53:02.908Z,14.90
2018-11-02T13:55:41.359Z,14.23
2018-11-02T13:58:16.140Z,14.70
2018-11-02T14:00:51.453Z,14.53
2018-11-02T14:03:26.084Z,14.53
2018-11-02T14:06:00.996Z,13.63
2018-11-02T14:08:35.958Z,15.57
2018-11-02T14:11:10.796Z,17.33
2018-11-02T14:13:45.990Z,14.93
2018-11-02T14:16:20.677Z,14.70
2018-11-02T14:18:55.474Z,14.57
2018-11-02T14:21:30.025Z,15.00
2018-11-02T14:24:05.755Z,15.17
2018-11-02T14:26:40.623Z,15.17
2018-11-02T14:29:16.032Z,14.80
2018-11-02T14:31:50.836Z,14.70
2018-11-02T14:34:25.708Z,15.23
2018-11-02T14:37:06.705Z,14.63
2018-11-02T14:39:42.229Z,15.70
2018-11-02T14:42:17.107Z,15.93
2018-11-02T14:44:52.329Z,15.93
2018-11-02T14:47:36.848Z,16.40
2018-11-02T14:50:12.155Z,15.70
2018-11-02T14:52:47.272Z,15.20
2018-11-02T14:55:22.074Z,17.33
2018-11-02T14:57:57.029Z,17.00
2018-11-02T15:00:31.926Z,17.07
2018-11-02T15:03:06.732Z,16.43
2018-11-02T15:05:41.437Z,17.47
2018-11-02T15:08:16.121Z,17.20
2018-11-02T15:10:50.769Z,17.00
2018-11-02T15:13:25.828Z,16.90
2018-11-02T15:16:00.492Z,17.23
2018-11-02T15:18:35.510Z,16.97
2018-11-02T15:21:10.489Z,17.10
2018-11-02T15:23:45.724Z,17.10
2018-11-02T15:26:20.763Z,18.37
2018-11-02T15:28:56.170Z,17.23
2018-11-02T15:31:31.274Z,16.40
2018-11-02T15:34:07.055Z,17.20
2018-11-02T15:36:41.921Z,18.03
2018-11-02T15:39:16.751Z,16.93
2018-11-02T15:41:51.485Z,23.13
2018-11-02T15:44:26.832Z,19.60
2018-11-02T15:47:04.708Z,15.97
2018-11-02T15:49:39.600Z,19.17
2018-11-02T15:52:14.259Z,17.37
2018-11-02T15:54:49.428Z,15.50
2018-11-02T15:57:24.248Z,16.33
2018-11-02T15:59:59.061Z,17.00
2018-11-02T16:02:38.458Z,16.03
2018-11-02T16:05:13.300Z,16.43
2018-11-02T16:07:47.968Z,17.30
2018-11-02T16:10:23.604Z,17.17
2018-11-02T16:12:58.369Z,17.20
2018-11-02T16:15:33.141Z,29.13
2018-11-02T16:18:08.344Z,22.07
2018-11-02T16:20:43.637Z,21.03
2018-11-02T16:23:18.298Z,22.27
2018-11-02T16:25:52.996Z,23.73
2018-11-02T16:28:27.868Z,25.17
2018-11-02T16:31:02.603Z,25.27
2018-11-02T16:33:37.982Z,23.10
2018-11-02T16:36:12.626Z,25.30
2018-11-02T16:38:47.688Z,22.63
2018-11-02T16:41:22.712Z,20.00
2018-11-02T16:43:57.541Z,19.80
2018-11-02T16:46:32.380Z,19.70
2018-11-02T16:49:07.253Z,20.30
2018-11-02T16:51:42.365Z,20.50
2018-11-02T16:54:17.152Z,20.03
2018-11-02T16:56:52.743Z,20.43
2018-11-02T16:59:27.738Z,19.93
2018-11-02T17:02:02.906Z,20.00
2018-11-02T17:04:37.720Z,19.57
2018-11-02T17:07:12.536Z,20.13
2018-11-02T17:09:47.440Z,18.30
2018-11-02T17:12:22.224Z,19.00
2018-11-02T17:14:56.833Z,18.83
2018-11-02T17:17:31.790Z,18.33
2018-11-02T17:20:11.817Z,18.67
2018-11-02T17:22:47.742Z,17.87
2018-11-02T17:25:22.488Z,17.57
2018-11-02T17:27:59.292Z,17.57
2018-11-02T17:31:02.924Z,18.17
2018-11-02T17:33:42.861Z,19.07
2018-11-02T17:36:17.789Z,19.13
2018-11-02T17:41:30.340Z,22.80
2018-11-02T17:44:05.681Z,21.17
2018-11-02T17:46:40.532Z,21.53
2018-11-02T17:49:15.851Z,21.00
2018-11-02T17:51:50.575Z,21.80
2018-11-02T17:54:25.013Z,24.53
2018-11-02T17:56:59.787Z,23.63
2018-11-02T17:59:34.387Z,26.10
2018-11-02T18:02:09.046Z,25.70
2018-11-02T18:04:43.814Z,28.47
2018-11-02T18:07:19.634Z,33.17
2018-11-02T18:09:54.767Z,31.60
2018-11-02T18:12:29.797Z,29.10
2018-11-02T18:15:05.134Z,28.17
2018-11-02T18:17:40.381Z,26.07
2018-11-02T18:20:16.051Z,28.90
2018-11-02T18:22:50.748Z,28.83
2018-11-02T18:25:25.727Z,27.63
2018-11-02T18:28:00.444Z,27.37
2018-11-02T18:30:35.029Z,25.97
2018-11-02T18:33:09.676Z,24.73
2018-11-02T18:35:44.301Z,25.27
2018-11-02T18:38:19.292Z,27.73
2018-11-02T18:40:54.184Z,25.30
2018-11-02T18:43:29.061Z,26.70
2018-11-02T18:46:03.985Z,27.50
2018-11-02T18:48:38.444Z,27.50
2018-11-02T18:51:13.267Z,28.27
2018-11-02T18:53:48.288Z,27.03
2018-11-02T18:56:23.084Z,26.87
2018-11-02T18:58:58.286Z,27.07
2018-11-02T19:01:33.068Z,27.90
2018-11-02T19:04:08.105Z,28.10
2018-11-02T19:06:42.833Z,26.57
2018-11-02T19:09:17.340Z,26.50
2018-11-02T19:11:52.987Z,27.47
2018-11-02T19:14:28.104Z,29.00
2018-11-02T19:17:03.061Z,26.13
2018-11-02T19:19:38.139Z,28.20
2018-11-02T19:22:12.901Z,27.50
2018-11-02T19:24:48.080Z,27.70
2018-11-02T19:27:23.123Z,28.40
2018-11-02T19:29:58.405Z,29.03
2018-11-02T19:32:33.796Z,26.57
2018-11-02T19:35:09.595Z,28.63
2018-11-02T19:37:44.721Z,28.97
2018-11-02T19:40:20.002Z,32.53
2018-11-02T19:42:54.740Z,32.60
2018-11-02T19:45:29.980Z,33.13
2018-11-02T19:48:06.053Z,29.43
2018-11-02T19:50:40.947Z,29.60
2018-11-02T19:53:15.807Z,31.37
2018-11-02T19:55:50.989Z,32.80
2018-11-02T19:58:25.736Z,34.23
2018-11-02T20:01:00.435Z,37.80
2018-11-02T20:03:35.228Z,36.50
2018-11-02T20:06:10.264Z,34.87
2018-11-02T20:08:45.650Z,33.90
2018-11-02T20:11:20.569Z,33.77
2018-11-02T20:13:55.213Z,30.67
2018-11-02T20:16:30.222Z,30.77
2018-11-02T20:19:04.728Z,27.80
2018-11-02T20:21:39.881Z,26.53
2018-11-02T20:24:15.020Z,26.63
2018-11-02T20:26:49.884Z,24.63
2018-11-02T20:29:24.520Z,26.37
2018-11-02T20:31:59.725Z,24.70
2018-11-02T20:34:34.773Z,25.07
2018-11-02T20:37:09.556Z,24.80
2018-11-02T20:39:44.656Z,25.63
2018-11-02T20:42:19.276Z,25.10
2018-11-02T20:44:53.963Z,25.93
2018-11-02T20:47:32.888Z,25.63
2018-11-02T20:50:09.011Z,26.87
2018-11-02T20:52:43.793Z,25.20
2018-11-02T20:58:06.242Z,27.93
2018-11-02T21:00:41.369Z,25.30
2018-11-02T21:03:17.504Z,25.17
2018-11-02T21:05:52.453Z,25.73
2018-11-02T21:08:27.521Z,25.23
2018-11-02T21:11:02.548Z,24.47
2018-11-02T21:13:37.291Z,25.83
2018-11-02T21:16:12.116Z,25.90
2018-11-02T21:18:47.133Z,27.23
2018-11-02T21:21:23.495Z,26.17
2018-11-02T21:24:06.244Z,26.20
2018-11-02T21:26:51.196Z,27.73
2018-11-02T21:29:25.609Z,24.93
2018-11-02T21:32:00.581Z,25.77
2018-11-02T21:34:35.370Z,27.40
2018-11-02T21:37:10.021Z,27.73
2018-11-02T21:39:44.661Z,27.50
2018-11-02T21:42:19.711Z,25.87
2018-11-02T21:44:54.216Z,29.57
2018-11-02T21:47:28.753Z,32.93
2018-11-02T21:50:03.506Z,33.53
2018-11-02T21:52:37.820Z,30.70
2018-11-02T21:55:12.515Z,31.93
2018-11-02T21:57:47.684Z,29.40
2018-11-02T22:00:24.172Z,29.63
2018-11-02T22:02:58.975Z,32.47
2018-11-02T22:05:34.079Z,32.27
2018-11-02T22:08:09.029Z,31.63
2018-11-02T22:10:43.901Z,30.90
2018-11-02T22:13:18.661Z,30.93
2018-11-02T22:15:53.328Z,31.03
2018-11-02T22:18:28.229Z,31.00
2018-11-02T22:21:03.206Z,30.77
2018-11-02T22:23:38.224Z,32.30
2018-11-02T22:26:14.084Z,31.03
2018-11-02T22:28:48.831Z,32.37
2018-11-02T22:31:23.801Z,33.50
2018-11-02T22:33:58.767Z,32.80
2018-11-02T22:36:33.536Z,32.60
2018-11-02T22:39:11.344Z,32.93
2018-11-02T22:44:25.427Z,31.43
2018-11-02T22:47:03.797Z,32.23
2018-11-02T22:49:39.170Z,32.33
2018-11-02T22:52:14.252Z,31.97
2018-11-02T22:54:55.907Z,31.03
2018-11-02T22:57:30.837Z,32.17
2018-11-02T23:00:13.456Z,31.87
2018-11-02T23:02:48.786Z,31.80
2018-11-02T23:05:27.890Z,30.40
2018-11-02T23:08:03.009Z,30.33
2018-11-02T23:10:37.722Z,32.23
2018-11-02T23:13:12.568Z,31.97
2018-11-02T23:15:47.393Z,30.67
2018-11-02T23:18:22.298Z,30.20
2018-11-02T23:20:57.061Z,31.37
2018-11-02T23:23:31.665Z,29.27
2018-11-02T23:26:07.102Z,29.03
2018-11-02T23:28:42.293Z,27.93
2018-11-02T23:31:17.572Z,28.70
2018-11-02T23:33:52.347Z,30.10
2018-11-02T23:36:27.117Z,29.80
2018-11-02T23:39:02.538Z,29.87
2018-11-02T23:41:42.222Z,28.13
2018-11-02T23:44:16.909Z,29.17
2018-11-02T23:46:51.646Z,28.37
2018-11-02T23:49:26.248Z,28.87
2018-11-02T23:52:01.051Z,27.13
2018-11-02T23:54:35.979Z,27.93
2018-11-02T23:57:10.609Z,27.03
2018-11-02T23:59:45.435Z,28.33
